Terminal Aerodrome Forecast
Issued by NWS

Home | Current Version | Previous Version | Text Only | Print | Product List | Glossary On
Versions: 1 2 3 4 5 6 7 8
000
FTUS45 KVEF 242300
TAFDAG
TAF
KDAG 242330Z 2500/2524 VRB05KT P6SM BKN250
     FM250200 25012G20KT P6SM FEW250
     FM250700 27024G34KT P6SM SKC
     FM251400 34012KT P6SM SCT060=

USA.gov is the U.S. government's official web portal to all federal, state and local government web resources and services.